Time;durP1;ratioP1;P1;durP2;ratioP2;P2;SDS_P1;SDS_P2;PMS_P1;PMS_P2;Temp;Humidity;BMP_temperature;BMP_pressure;BME280_temperature;BME280_humidity;BME280_pressure;Samples;Min_cycle;Max_cycle;Signal;HPM_P1;HPM_P2
2024/04/24 00:01:15;;;;;;;5.30;4.53;;;;;;;-141.84;55.58;19078.19;5450934;26;20811;-58
2024/04/24 00:03:47;;;;;;;6.83;4.67;;;;;;;-141.84;55.90;19055.84;5449878;26;20291;-59
2024/04/24 00:06:18;;;;;;;5.63;4.37;;;;;;;-141.84;56.42;19102.56;5449190;26;20359;-59
2024/04/24 00:08:53;;;;;;;5.20;4.70;;;;;;;-141.84;55.34;19074.13;5449381;26;20354;-59
2024/04/24 00:11:26;;;;;;;6.70;4.37;;;;;;;-141.84;54.58;19086.31;5450832;26;20253;-59
2024/04/24 00:13:55;;;;;;;4.77;4.37;;;;;;;-141.84;53.80;19059.91;5449167;26;20253;-58
2024/04/24 00:16:28;;;;;;;5.77;3.90;;;;;;;-141.84;53.58;19066.00;5449586;26;20269;-58
2024/04/24 00:19:00;;;;;;;4.80;3.93;;;;;;;-141.84;53.61;19098.50;5393540;26;20262;-58
2024/04/24 00:21:32;;;;;;;4.10;3.70;;;;;;;-141.84;54.36;19076.16;5449480;26;20288;-59
2024/04/24 00:24:06;;;;;;;4.47;4.07;;;;;;;-141.84;54.43;19059.91;5448683;26;20261;-62
2024/04/24 00:26:40;;;;;;;4.13;3.70;;;;;;;-141.84;54.00;19139.16;5425266;26;20348;-58
2024/04/24 00:29:12;;;;;;;4.37;3.97;;;;;;;-141.84;54.46;19084.28;5449562;26;20293;-58
2024/04/24 00:31:43;;;;;;;4.57;3.90;;;;;;;-141.84;53.75;19082.25;5435333;26;20226;-59
2024/04/24 00:34:12;;;;;;;3.93;3.53;;;;;;;-141.84;54.34;19092.41;5452123;26;20226;-59
2024/04/24 00:36:43;;;;;;;4.03;3.63;;;;;;;-141.84;53.83;19074.13;5448569;26;20591;-58
2024/04/24 00:39:18;;;;;;;4.00;3.60;;;;;;;-141.84;53.86;19053.81;5451121;26;20256;-59
2024/04/24 00:41:48;;;;;;;4.30;3.73;;;;;;;-141.84;53.56;19102.56;5452528;26;20249;-59
2024/04/24 00:44:19;;;;;;;4.80;3.83;;;;;;;-141.84;54.53;19039.59;5452583;26;20249;-58
2024/04/24 00:46:53;;;;;;;4.20;3.77;;;;;;;-141.84;53.67;19070.06;5451997;26;20317;-59
2024/04/24 00:49:27;;;;;;;4.77;4.13;;;;;;;-141.84;54.08;19066.00;5452787;26;20332;-59
2024/04/24 00:51:58;;;;;;;4.37;3.70;;;;;;;-141.84;53.84;19074.13;5411387;26;20237;-58
2024/04/24 00:54:33;;;;;;;6.87;3.60;;;;;;;-141.84;53.25;19076.16;5452087;26;20286;-58
2024/04/24 00:57:05;;;;;;;4.03;3.67;;;;;;;-141.84;53.96;19080.22;5452448;26;20249;-59
2024/04/24 00:59:38;;;;;;;4.67;3.73;;;;;;;-141.84;54.05;19078.19;5452297;26;20729;-58
2024/04/24 01:02:10;;;;;;;4.57;4.17;;;;;;;-141.84;54.79;19039.59;5437847;26;20280;-59
2024/04/24 01:04:42;;;;;;;4.43;4.03;;;;;;;-141.84;54.64;19047.72;5451481;26;20333;-58
2024/04/24 01:07:13;;;;;;;4.33;3.70;;;;;;;-141.84;54.34;19092.41;5452471;26;20261;-58
2024/04/24 01:09:48;;;;;;;4.00;3.60;;;;;;;-141.84;53.84;19051.78;5451531;26;20743;-69
2024/04/24 01:12:19;;;;;;;4.40;4.00;;;;;;;-141.84;53.48;19120.88;5452439;26;20252;-69
2024/04/24 01:14:51;;;;;;;4.27;3.87;;;;;;;-141.84;54.62;19076.16;5451278;26;20250;-69
2024/04/24 01:17:22;;;;;;;4.23;3.83;;;;;;;-141.84;53.77;19070.06;5451385;26;20304;-69
2024/04/24 01:19:56;;;;;;;4.80;4.27;;;;;;;-141.84;54.19;19088.34;5451621;26;20301;-69
2024/04/24 01:22:47;;;;;;;6.00;4.37;;;;;;;-141.84;54.60;19049.75;5452208;26;20292;-69
2024/04/24 01:25:31;;;;;;;4.50;4.10;;;;;;;-141.84;55.45;19027.41;5426307;26;20243;-69
2024/04/24 01:28:05;;;;;;;4.00;3.60;;;;;;;-141.84;55.07;19029.44;5371147;26;20253;-70
2024/04/24 01:30:37;;;;;;;4.23;3.83;;;;;;;-141.84;55.78;19037.56;5341247;26;20610;-70
2024/04/24 01:33:10;;;;;;;5.00;4.07;;;;;;;-141.84;55.88;19041.63;5430841;26;20352;-70
2024/04/24 01:35:41;;;;;;;4.10;3.63;;;;;;;-141.84;55.38;19023.34;5416016;26;20301;-70
2024/04/24 01:38:12;;;;;;;4.50;4.10;;;;;;;-141.84;55.35;19049.75;5417116;26;20304;-73
2024/04/24 01:40:44;;;;;;;4.13;3.73;;;;;;;-141.84;56.43;19021.31;5432965;26;20237;-59
2024/04/24 01:43:17;;;;;;;4.90;4.40;;;;;;;-141.84;56.99;18998.94;5432248;26;20273;-59
2024/04/24 01:45:51;;;;;;;4.20;3.80;;;;;;;-141.84;56.40;19039.59;5444883;26;20253;-59
2024/04/24 01:48:22;;;;;;;4.40;4.00;;;;;;;-141.84;56.02;19021.31;5415632;26;20904;-59
2024/04/24 01:50:56;;;;;;;4.60;4.20;;;;;;;-141.84;55.66;18978.63;5429729;26;20307;-58
2024/04/24 01:53:28;;;;;;;5.33;4.50;;;;;;;-141.84;56.35;19039.59;5432974;26;20260;-58
2024/04/24 01:56:00;;;;;;;6.10;4.20;;;;;;;-141.84;55.59;19015.19;5435413;26;20299;-58
2024/04/24 01:58:35;;;;;;;4.57;4.10;;;;;;;-141.84;55.52;19045.69;5421441;26;20558;-60
2024/04/24 02:01:06;;;;;;;4.23;3.90;;;;;;;-141.84;56.03;19017.25;5418218;26;20269;-59
2024/04/24 02:03:38;;;;;;;4.50;4.10;;;;;;;-141.84;56.62;19017.25;5417060;26;20289;-59
2024/04/24 02:06:09;;;;;;;4.63;4.23;;;5.50;99.90;;;-141.84;57.01;19049.75;5415540;26;20444;-58
2024/04/24 02:08:39;;;;;;;4.53;4.13;;;5.50;99.90;;;-141.84;56.75;19015.19;5431248;26;20254;-59
2024/04/24 02:11:11;;;;;;;5.10;4.60;;;5.50;99.90;;;-141.84;57.34;19066.00;5431385;26;20257;-58
2024/04/24 02:13:44;;;;;;;6.13;4.10;;;5.50;99.90;;;-141.84;57.06;19035.53;5416336;26;20636;-59
2024/04/24 02:16:16;;;;;;;5.73;4.90;;;;;;;-141.84;56.21;19074.13;5420223;26;20233;-59
2024/04/24 02:18:47;;;;;;;6.67;5.10;;;;;;;-141.84;56.58;19070.06;5416674;26;20297;-59
2024/04/24 02:21:18;;;;;;;5.50;5.00;;;5.60;99.90;;;-141.84;55.39;19086.31;5431148;26;20317;-58
2024/04/24 02:23:48;;;;;;;7.77;4.83;;;5.70;99.90;;;-141.84;55.85;19029.44;5430854;26;20928;-58
2024/04/24 02:26:15;;;;;;;5.53;5.03;;;5.70;99.90;;;-141.84;56.49;19068.03;5449780;26;20285;-58
2024/04/24 02:28:48;;;;;;;6.10;4.97;;;5.70;99.90;;;-141.84;54.61;19045.69;5443975;26;20237;-60
2024/04/24 02:31:18;;;;;;;5.90;5.13;;;5.70;99.90;;;-141.84;55.25;19053.81;5449296;26;20234;-58
2024/04/24 02:33:49;;;;;;;5.93;4.90;;;5.70;99.90;;;-141.84;56.45;19047.72;5451230;26;20298;-58
2024/04/24 02:36:19;;;;;;;5.63;4.97;;;5.70;99.90;;;-141.84;55.42;19051.78;5450878;26;20273;-59
2024/04/24 02:38:52;;;;;;;5.67;5.10;;;5.70;99.90;;;-141.84;54.35;19120.88;5449544;26;20250;-59
2024/04/24 02:41:22;;;;;;;6.23;5.17;;;5.80;99.90;;;-141.84;54.76;19090.38;5419636;26;20254;-58
2024/04/24 02:43:55;;;;;;;7.80;5.00;;;5.80;99.90;;;-141.84;55.59;19070.06;5449825;26;20261;-58
2024/04/24 02:46:25;;;;;;;7.90;5.40;;;5.80;99.90;;;-141.84;56.04;19078.19;5450872;26;20333;-59
2024/04/24 02:48:56;;;;;;;6.63;5.83;;;5.70;99.90;;;-141.84;55.69;19096.47;5446974;26;20277;-59
2024/04/24 02:51:26;;;;;;;7.93;5.47;;;5.70;99.90;;;-141.84;56.49;19055.84;5449893;26;20349;-58
2024/04/24 02:53:57;;;;;;;7.03;5.77;;;5.70;99.90;;;-141.84;56.60;19051.78;5449954;26;20250;-58
2024/04/24 02:56:28;;;;;;;6.43;5.70;;;5.70;99.90;;;-141.84;55.24;19086.31;5449036;26;20643;-58
2024/04/24 02:59:00;;;;;;;6.30;5.70;;;5.70;99.90;;;-141.84;55.45;19068.03;5449387;26;20336;-58
2024/04/24 03:01:34;;;;;;;6.90;6.13;;;5.70;99.90;;;-141.84;56.13;19047.72;5449691;26;20233;-59
2024/04/24 03:04:04;;;;;;;7.27;6.17;;;5.70;99.90;;;-141.84;55.90;19090.38;5452350;26;20230;-58
2024/04/24 03:06:35;;;;;;;7.63;5.83;;;5.70;99.90;;;-141.84;55.24;19049.75;5450690;26;20245;-60
2024/04/24 03:09:05;;;;;;;7.37;6.57;;;5.70;99.90;;;-141.84;55.88;19037.56;5455969;26;20257;-58
2024/04/24 03:11:36;;;;;;;8.27;6.13;;;5.60;99.90;;;-141.84;55.91;19057.88;5462949;26;20256;-58
2024/04/24 03:14:11;;;;;;;6.90;6.20;;;5.70;99.90;;;-141.84;54.74;19068.03;5455917;26;20320;-59
2024/04/24 03:16:41;;;;;;;6.80;6.20;;;5.80;99.90;;;-141.84;54.84;19106.66;5449437;26;20328;-59
2024/04/24 03:19:12;;;;;;;6.43;5.83;;;5.90;99.90;;;-141.84;54.67;19080.22;5450614;26;20233;-58
2024/04/24 03:21:42;;;;;;;8.30;5.80;;;5.80;99.90;;;-141.84;55.74;19082.25;5448573;26;20285;-58
2024/04/24 03:24:15;;;;;;;7.60;6.60;;;5.70;99.90;;;-141.84;55.66;19039.59;5449652;26;20342;-58
2024/04/24 03:26:45;;;;;;;6.83;6.13;;;5.70;99.90;;;-141.84;57.11;19041.63;5435798;26;20336;-58
2024/04/24 03:29:18;;;;;;;7.53;6.10;;;5.60;99.90;;;-141.84;58.16;19055.84;5437404;26;20260;-58
2024/04/24 03:31:51;;;;;;;6.80;6.20;;;5.50;99.90;;;-141.84;57.92;19080.22;5429033;26;20311;-58
2024/04/24 03:34:21;;;;;;;9.13;6.33;;;5.60;99.90;;;-141.84;57.57;19051.78;5443316;26;20626;-59
2024/04/24 03:36:52;;;;;;;6.80;5.73;;;5.50;99.90;;;-141.84;57.12;19070.06;5433152;26;20268;-58
2024/04/24 03:39:22;;;;;;;8.93;6.40;;;5.50;99.90;;;-141.84;58.58;19037.56;5433019;26;20779;-58
2024/04/24 03:41:52;;;;;;;7.60;6.43;;;5.50;99.90;;;-141.84;58.61;19025.38;5429005;26;20310;-58
2024/04/24 03:44:24;;;;;;;6.80;6.17;;;5.40;99.90;;;-141.84;59.51;19045.69;5428450;26;20258;-59
2024/04/24 03:46:56;;;;;;;8.77;6.87;;;5.40;99.90;;;-141.84;59.88;19029.44;5428428;26;20620;-58
2024/04/24 03:49:24;;;;;;;7.43;6.70;;;5.40;99.90;;;-141.84;58.76;19029.44;5433659;26;20833;-59
2024/04/24 03:51:54;;;;;;;7.47;6.60;;;5.40;99.90;;;-141.84;59.57;19049.75;5432659;26;20260;-58
2024/04/24 03:54:24;;;;;;;7.03;6.33;;;5.40;99.90;;;-141.84;59.90;19045.69;5430127;26;20255;-58
2024/04/24 03:56:54;;;;;;;6.70;5.80;;;5.40;99.90;;;-141.84;60.12;19043.66;5428611;26;20353;-59
2024/04/24 03:59:33;;;;;;;8.83;6.97;;;5.40;99.90;;;-141.84;59.12;19059.91;5428699;26;20691;-58
2024/04/24 04:02:03;;;;;;;8.53;7.13;;;5.40;99.90;;;-141.84;59.31;19055.84;5434566;26;20256;-59
2024/04/24 04:04:33;;;;;;;7.90;6.70;;;5.40;99.90;;;-141.84;59.06;19063.97;5433744;26;20334;-59
2024/04/24 04:07:03;;;;;;;8.07;6.90;;;5.40;99.90;;;-141.84;59.57;19019.28;5430652;26;20268;-59
2024/04/24 04:09:34;;;;;;;7.93;6.73;;;5.40;99.90;;;-141.84;60.00;19039.59;5428512;26;20296;-58
2024/04/24 04:12:06;;;;;;;7.40;6.70;;;5.40;99.90;;;-141.84;59.93;19053.81;5427942;26;20258;-59
2024/04/24 04:14:44;;;;;;;7.47;6.67;;;5.40;99.90;;;-141.84;60.42;19070.06;5416973;26;20317;-59
2024/04/24 04:17:14;;;;;;;7.80;7.00;;;5.40;99.90;;;-141.84;57.89;19055.84;5431851;26;20297;-69
2024/04/24 04:19:44;;;;;;;8.07;7.13;;;5.50;99.90;;;-141.84;58.92;19011.13;5438128;26;20316;-69
2024/04/24 04:22:14;;;;;;;8.07;7.03;;;5.50;99.90;;;-141.84;58.82;19049.75;5432054;26;20227;-69
2024/04/24 04:24:44;;;;;;;9.83;7.07;;;5.50;99.90;;;-141.84;57.93;19037.56;5431271;26;20270;-69
2024/04/24 04:27:15;;;;;;;8.07;7.20;;;5.60;99.90;;;-141.84;57.46;19017.25;5371695;26;20254;-69
2024/04/24 04:29:47;;;;;;;9.17;7.07;;;5.60;99.90;;;-141.84;57.43;19043.66;5435825;26;20335;-69
2024/04/24 04:32:18;;;;;;;7.73;6.97;;;5.60;99.90;;;-141.84;58.18;19035.53;5437563;26;20300;-69
2024/04/24 04:34:48;;;;;;;8.07;7.30;;;5.60;99.90;;;-141.84;59.05;19033.50;5451707;26;20268;-69
2024/04/24 04:37:18;;;;;;;9.00;6.87;;;5.60;99.90;;;-141.84;57.92;19007.06;5438545;26;20238;-69
2024/04/24 04:39:49;;;;;;;7.97;7.17;;;5.60;99.90;;;-141.84;57.27;19078.19;5418192;26;20265;-70
2024/04/24 04:42:20;;;;;;;9.23;7.60;;;5.70;99.90;;;-141.84;57.13;19070.06;5432736;26;20361;-70
2024/04/24 04:44:53;;;;;;;10.03;7.50;;;5.80;99.90;;;-141.84;57.31;19078.19;5434014;26;20742;-70
2024/04/24 04:47:23;;;;;;;9.10;7.33;;;5.90;99.90;;;-141.84;56.14;19092.41;5436020;26;20288;-69
2024/04/24 04:49:53;;;;;;;8.00;7.20;;;6.00;99.90;;;-141.84;55.23;19082.25;5437134;26;20268;-69
2024/04/24 04:52:23;;;;;;;8.50;7.50;;;6.10;99.90;;;-141.84;53.98;19090.38;5437012;26;20725;-69
2024/04/24 04:54:54;;;;;;;8.17;6.93;;;6.20;99.90;;;-141.84;54.00;19092.41;5436946;26;20256;-69
2024/04/24 04:57:24;;;;;;;8.43;7.37;;;6.20;99.90;;;-141.84;54.63;19106.66;5420922;26;20301;-70
2024/04/24 04:59:56;;;;;;;9.57;6.93;;;6.20;99.90;;;-141.84;52.87;19122.91;5437182;26;20302;-69
2024/04/24 05:02:26;;;;;;;7.43;6.73;;;6.30;99.90;;;-141.84;53.08;19110.72;5436343;26;20634;-70
2024/04/24 05:04:57;;;;;;;8.27;7.07;;;6.40;99.90;;;-141.84;53.46;19118.84;5439136;26;20293;-69
2024/04/24 05:07:27;;;;;;;9.10;7.37;;;6.50;99.90;;;-141.84;53.72;19145.25;5437887;26;20330;-69
2024/04/24 05:09:58;;;;;;;9.10;7.50;;;6.50;99.90;;;-141.84;53.89;19104.59;5442114;26;20765;-69
2024/04/24 05:12:28;;;;;;;10.27;6.57;;;6.50;99.90;;;-141.84;53.55;19124.94;5432371;26;20251;-70
2024/04/24 05:15:02;;;;;;;9.53;7.47;;;6.50;99.90;;;-141.84;53.43;19141.19;5431802;26;20330;-68
2024/04/24 05:17:34;;;;;;;8.27;7.17;;;6.50;99.90;;;-141.84;52.93;19171.66;5419389;26;20285;-68
2024/04/24 05:20:04;;;;;;;10.83;7.00;;;6.50;99.90;;;-141.84;53.80;19149.31;5436514;26;20260;-69
2024/04/24 05:22:46;;;;;;;7.50;6.80;;;6.50;99.90;;;-141.84;54.31;19118.84;5436088;26;20230;-67
2024/04/24 05:25:20;;;;;;;9.03;7.00;;;6.50;99.90;;;-141.84;53.76;19141.19;5431690;26;20274;-68
2024/04/24 05:30:40;;;;;;;7.73;6.57;;;6.50;99.90;;;-141.84;54.82;19098.50;5443319;26;20308;-68
2024/04/24 05:33:11;;;;;;;7.63;6.83;;;6.50;99.90;;;-141.84;55.02;19118.84;5453388;26;20254;-68
2024/04/24 05:35:41;;;;;;;8.10;6.30;;;6.50;99.90;;;-141.84;55.38;19129.00;5452563;26;20745;-69
2024/04/24 05:38:12;;;;;;;8.87;7.70;;;6.50;99.90;;;-141.84;54.17;19122.91;5452219;26;20708;-68
2024/04/24 05:40:42;;;;;;;9.63;7.33;;;6.50;99.90;;;-141.84;55.00;19163.53;5452491;26;20226;-69
2024/04/24 05:43:13;;;;;;;8.43;6.90;;;6.50;99.90;;;-141.84;54.37;19116.81;5453423;26;20241;-70
2024/04/24 05:45:49;;;;;;;8.67;7.87;;;6.50;99.90;;;-141.84;54.29;19147.28;5455828;26;20253;-69
2024/04/24 05:48:19;;;;;;;7.73;7.00;;;6.50;99.90;;;-141.84;54.47;19124.94;5454222;26;20692;-69
2024/04/24 05:50:53;;;;;;;10.97;7.57;;;6.50;99.90;;;-141.84;54.19;19129.00;5452374;26;20250;-69
2024/04/24 05:53:23;;;;;;;8.97;7.83;;;6.50;99.90;;;-141.84;54.67;19122.91;5450404;26;20291;-69
2024/04/24 05:55:53;;;;;;;11.73;7.70;;;6.50;99.90;;;-141.84;53.11;19143.22;5453199;26;20262;-68
2024/04/24 05:58:23;;;;;;;10.20;7.80;;;6.50;99.90;;;-141.84;53.63;19120.88;5452440;26;20226;-70
2024/04/24 06:00:56;;;;;;;9.53;7.83;;;6.50;99.90;;;-141.84;53.39;19137.13;5453462;26;20249;-68
2024/04/24 06:03:27;;;;;;;8.77;7.87;;;6.60;99.90;;;-141.84;52.86;19129.00;5452327;26;20277;-70
2024/04/24 06:05:58;;;;;;;9.17;8.17;;;6.50;99.90;;;-141.84;53.04;19153.38;5452871;26;20342;-69
2024/04/24 06:08:28;;;;;;;9.57;7.97;;;6.70;99.90;;;-141.84;53.06;19120.88;5451835;26;20246;-69
2024/04/24 06:10:58;;;;;;;8.40;7.10;;;6.70;99.90;;;-141.84;52.73;19189.97;5451854;26;20321;-69
2024/04/24 06:13:28;;;;;;;8.90;8.00;;;6.80;99.90;;;-141.84;51.72;19179.78;5451976;26;20272;-68
2024/04/24 06:16:01;;;;;;;10.00;7.00;;;6.90;99.90;;;-141.84;50.86;19187.91;5442915;26;20233;-69
2024/04/24 06:18:31;;;;;;;7.40;6.70;;;7.00;99.90;;;-141.84;51.04;19155.41;5450919;26;20300;-69
2024/04/24 06:21:01;;;;;;;9.10;6.60;;;7.10;99.90;;;-141.84;50.63;19187.91;5451154;26;20310;-69
2024/04/24 06:23:32;;;;;;;7.87;7.07;;;7.00;99.90;;;-141.84;50.80;19206.22;5451707;26;20254;-69
2024/04/24 06:26:02;;;;;;;12.53;6.63;;;7.00;99.90;;;-141.84;50.95;19175.72;5450989;26;20366;-69
2024/04/24 06:28:32;;;;;;;7.57;6.77;;;7.00;99.90;;;-141.84;51.09;19175.72;5451324;26;20286;-69
2024/04/24 06:31:05;;;;;;;6.83;6.13;;;7.00;99.90;;;-141.84;51.48;19192.00;5451865;26;20300;-68
2024/04/24 06:33:36;;;;;;;8.17;6.77;;;7.10;99.90;;;-141.84;49.70;19198.09;5451390;26;20261;-68
2024/04/24 06:36:08;;;;;;;8.93;7.80;;;7.10;99.90;;;-141.84;49.26;19194.03;5450779;26;20733;-69
2024/04/24 06:38:38;;;;;;;8.77;7.53;;;7.10;99.90;;;-141.84;49.69;19208.25;5451453;26;20261;-69
2024/04/24 06:41:08;;;;;;;8.17;7.37;;;7.10;99.90;;;-141.84;49.46;19208.25;5451258;26;20253;-69
2024/04/24 06:43:42;;;;;;;7.97;7.00;;;7.10;99.90;;;-141.84;49.61;19185.88;5451376;26;20230;-68
2024/04/24 06:46:14;;;;;;;8.60;7.27;;;7.10;99.90;;;-141.84;50.16;19173.69;5451450;26;20280;-68
2024/04/24 06:48:44;;;;;;;8.40;7.20;;;7.10;99.90;;;-141.84;50.13;19212.31;5450489;26;20253;-69
2024/04/24 06:51:15;;;;;;;7.90;7.10;;;7.10;99.90;;;-141.84;49.93;19210.28;5436058;26;20312;-69
2024/04/24 06:53:49;;;;;;;8.67;7.10;;;7.20;99.90;;;-141.84;49.23;19198.09;5450378;26;20253;-69
2024/04/24 06:56:20;;;;;;;7.27;6.57;;;7.30;99.90;;;-141.84;50.16;19232.63;5450992;26;20376;-70
2024/04/24 06:58:53;;;;;;;7.67;6.97;;;7.40;99.90;;;-141.84;48.69;19248.88;5450566;26;20587;-69
2024/04/24 07:01:25;;;;;;;8.80;6.97;;;7.40;99.90;;;-141.84;48.56;19252.94;5450652;26;20290;-68
2024/04/24 07:03:56;;;;;;;8.37;7.00;;;7.50;99.90;;;-141.84;48.50;19236.69;5395856;26;20273;-68
2024/04/24 07:06:27;;;;;;;8.33;7.53;;;7.50;99.90;;;-141.84;48.24;19242.78;5451379;26;20254;-68
2024/04/24 07:08:57;;;;;;;10.00;7.17;;;7.50;99.90;;;-141.84;48.88;19261.06;5452404;26;20261;-68
2024/04/24 07:11:27;;;;;;;8.73;7.80;;;7.50;99.90;;;-141.84;49.17;19232.63;5450872;26;20253;-69
2024/04/24 07:14:00;;;;;;;9.03;8.10;;;7.60;99.90;;;-141.84;48.81;19261.06;5450954;26;20254;-71
2024/04/24 07:16:33;;;;;;;11.30;9.00;;;7.60;99.90;;;-141.84;49.00;19216.38;5450839;26;20358;-68
2024/04/24 07:19:04;;;;;;;9.93;8.90;;;7.60;99.90;;;-141.84;48.88;19267.16;5450536;26;20286;-69
2024/04/24 07:21:34;;;;;;;10.27;8.77;;;7.60;99.90;;;-141.84;48.53;19277.34;5451559;26;20254;-69
2024/04/24 07:24:04;;;;;;;10.23;9.23;;;7.70;99.90;;;-141.84;48.71;19248.88;5450585;26;20764;-69
2024/04/24 07:26:34;;;;;;;11.57;9.83;;;7.80;99.90;;;-141.84;47.96;19281.41;5452320;26;20257;-71
2024/04/24 07:29:04;;;;;;;11.20;9.47;;;8.00;99.90;;;-141.84;48.27;19283.44;5450188;26;20289;-69
2024/04/24 07:31:37;;;;;;;11.43;10.23;;;8.10;99.90;;;-141.84;48.69;19299.69;5451056;26;20741;-69
2024/04/24 07:34:07;;;;;;;11.77;10.20;;;8.10;99.90;;;-141.84;48.83;19275.31;5452427;26;20230;-68
2024/04/24 07:36:37;;;;;;;11.87;10.63;;;8.10;99.90;;;-141.84;48.78;19281.41;5453229;26;20351;-69
2024/04/24 07:39:07;;;;;;;13.80;11.23;;;8.10;99.90;;;-141.84;48.57;19287.50;5450982;26;20295;-68
2024/04/24 07:41:37;;;;;;;16.63;12.17;;;8.20;99.90;;;-141.84;48.33;19309.84;5450341;26;20353;-69
2024/04/24 07:44:12;;;;;;;13.80;12.40;;;8.20;99.90;;;-141.84;48.65;19297.66;5450795;26;20278;-69
2024/04/24 07:46:45;;;;;;;13.90;12.47;;;8.20;99.90;;;-141.84;49.34;19269.22;5449657;26;20271;-70
2024/04/24 07:49:15;;;;;;;13.80;12.07;;;8.10;99.90;;;-141.84;50.03;19295.63;5449396;26;20237;-69
2024/04/24 07:51:45;;;;;;;14.00;12.53;;;8.10;99.90;;;-141.84;49.92;19283.44;5449984;26;20254;-69
2024/04/24 07:54:16;;;;;;;15.13;12.80;;;8.10;99.90;;;-141.84;50.05;19269.22;5449729;26;20632;-68
2024/04/24 07:56:47;;;;;;;15.10;12.90;;;8.20;99.90;;;-141.84;50.20;19277.34;5450110;26;20280;-69
2024/04/24 07:59:14;;;;;;;15.10;12.47;;;8.20;99.90;;;-141.84;50.31;19269.22;5449088;26;20258;-68
2024/04/24 08:01:48;;;;;;;14.07;12.57;;;8.20;99.90;;;-141.84;49.93;19313.91;5449371;26;20293;-69
2024/04/24 08:04:20;;;;;;;14.70;13.10;;;8.20;99.90;;;-141.84;49.83;19281.41;5449988;26;20237;-68
2024/04/24 08:06:51;;;;;;;14.47;12.87;;;8.30;99.90;;;-141.84;50.57;19311.88;5449625;26;20257;-68
2024/04/24 08:09:21;;;;;;;14.43;12.90;;;8.30;99.90;;;-141.84;50.44;19269.22;5449554;26;20737;-69
2024/04/24 08:11:51;;;;;;;15.37;13.73;;;8.30;99.90;;;-141.84;50.72;19259.03;5450423;26;20280;-68
2024/04/24 08:14:21;;;;;;;15.67;13.53;;;8.30;99.90;;;-141.84;50.82;19289.53;5451674;26;20368;-68
2024/04/24 08:16:54;;;;;;;14.80;13.23;;;8.30;99.90;;;-141.84;50.68;19277.34;5449314;26;20257;-69
2024/04/24 08:19:24;;;;;;;14.93;12.60;;;8.30;99.90;;;-141.84;50.67;19317.97;5449555;26;20272;-69
2024/04/24 08:21:55;;;;;;;14.23;12.43;;;8.40;99.90;;;-141.84;50.45;19289.53;5449813;26;20234;-69
2024/04/24 08:24:25;;;;;;;14.53;12.73;;;8.50;99.90;;;-141.84;50.10;19283.44;5449314;26;20254;-69
2024/04/24 08:26:56;;;;;;;15.40;12.53;;;8.50;99.90;;;-141.84;50.38;19334.22;5444225;26;20949;-68
2024/04/24 08:29:28;;;;;;;13.90;12.40;;;8.50;99.90;;;-141.84;50.41;19277.34;5426132;26;20265;-69
2024/04/24 08:32:05;;;;;;;13.03;11.70;;;8.40;99.90;;;-141.84;49.82;19299.69;5430963;26;20330;-69
2024/04/24 08:34:51;;;;;;;14.90;12.30;;;8.50;99.90;;;-141.84;50.09;19315.94;5405318;26;20246;-68
2024/04/24 08:37:21;;;;;;;13.17;11.77;;;8.50;99.90;;;-141.84;49.81;19301.72;5445152;26;20343;-69
2024/04/24 08:39:52;;;;;;;12.60;11.23;;;8.50;99.90;;;-141.84;49.08;19317.97;5429501;26;20293;-69
2024/04/24 08:42:23;;;;;;;16.07;12.50;;;8.60;99.90;;;-141.84;49.83;19332.19;5428901;26;20249;-69
2024/04/24 08:44:55;;;;;;;13.30;11.87;;;8.70;99.90;;;-141.84;48.76;19348.47;5415106;26;20651;-69
2024/04/24 08:47:33;;;;;;;12.80;11.57;;;8.80;99.90;;;-141.84;48.62;19391.13;5425512;26;20288;-69
2024/04/24 08:50:03;;;;;;;12.67;11.37;;;9.00;99.90;;;-141.84;48.71;19358.63;5428865;26;20262;-69
2024/04/24 08:52:38;;;;;;;10.67;9.57;;;9.00;99.90;;;-141.84;48.72;19366.75;5429305;26;20240;-70
2024/04/24 08:55:15;;;;;;;10.07;9.07;;;9.10;99.90;;;-141.84;49.43;19334.22;5416316;26;20230;-68
2024/04/24 08:57:47;;;;;;;8.90;8.00;;;9.00;99.90;;;-141.84;49.86;19326.09;5433183;26;20292;-69
2024/04/24 09:00:21;;;;;;;6.90;6.20;;;8.80;99.90;;;-141.84;50.94;19313.91;5433488;26;20315;-70
2024/04/24 09:03:01;;;;;;;7.00;6.30;;;8.70;99.90;;;-141.84;51.38;19340.31;5432496;26;20800;-69
2024/04/24 09:05:36;;;;;;;6.33;5.73;;;8.80;99.90;;;-141.84;50.25;19376.91;5412301;26;20622;-69
2024/04/24 09:08:11;;;;;;;4.47;4.03;;;8.90;99.90;;;-141.84;50.33;19366.75;5405714;26;20342;-68
2024/04/24 09:10:41;;;;;;;5.77;3.57;;;8.90;99.90;;;-141.84;49.69;19326.09;5419571;26;20330;-68
2024/04/24 09:13:14;;;;;;;3.87;3.47;;;8.80;99.90;;;-141.84;50.82;19360.66;5418503;26;20773;-69
2024/04/24 09:15:48;;;;;;;3.57;2.80;;;8.80;99.90;;;-141.84;48.47;19366.75;5417074;26;20251;-68
2024/04/24 09:18:21;;;;;;;3.50;3.20;;;9.00;99.90;;;-141.84;48.00;19376.91;5435460;26;20249;-69
2024/04/24 09:20:52;;;;;;;3.97;3.00;;;9.10;99.90;;;-141.84;47.08;19405.34;5436139;26;20253;-68
2024/04/24 09:23:24;;;;;;;3.13;2.83;;;9.20;99.90;;;-141.84;47.08;19389.09;5436621;26;20631;-68
2024/04/24 09:25:54;;;;;;;4.87;3.33;;;9.20;99.90;;;-141.84;48.44;19370.81;5428346;26;20258;-68
2024/04/24 09:28:24;;;;;;;2.70;2.47;;;9.20;99.90;;;-141.84;48.26;19364.72;5450268;26;20275;-68
2024/04/24 09:30:57;;;;;;;2.90;2.60;;;9.20;99.90;;;-141.84;46.52;19391.13;5451078;26;20287;-68
2024/04/24 09:33:31;;;;;;;3.23;2.20;;;9.30;99.90;;;-141.84;46.46;19411.44;5451686;26;20333;-69
2024/04/24 09:36:02;;;;;;;2.47;2.23;;;9.20;99.90;;;-141.84;46.77;19427.72;5451847;26;20629;-69
2024/04/24 09:38:32;;;;;;;3.20;2.90;;;9.50;99.90;;;-141.84;45.67;19456.16;5451797;26;20254;-68
2024/04/24 09:41:03;;;;;;;5.53;3.70;;;9.70;99.90;;;-141.84;45.38;19492.75;5451395;26;20322;-69
2024/04/24 09:43:34;;;;;;;4.00;3.60;;;9.90;99.90;;;-141.84;45.14;19482.56;5451806;26;20337;-68
2024/04/24 09:46:05;;;;;;;3.60;3.30;;;10.00;99.90;;;-141.84;44.73;19541.50;5452476;26;20226;-69
2024/04/24 09:48:38;;;;;;;4.30;3.50;;;10.30;99.90;;;-141.84;44.67;19539.47;5451499;26;20339;-68
2024/04/24 09:51:11;;;;;;;5.43;3.73;;;10.50;99.90;;;-141.84;44.01;19606.53;5437251;26;20777;-69
2024/04/24 09:53:41;;;;;;;2.30;1.90;;;10.80;99.90;;;-141.84;42.70;19588.25;5451969;26;20284;-69
2024/04/24 09:56:22;;;;;;;1.90;1.80;;;10.70;99.90;;;-141.84;42.47;19539.47;5451271;26;20258;-69
2024/04/24 09:58:57;;;;;;;2.47;1.90;;;10.50;99.90;;;-141.84;42.23;19541.50;5451569;26;20272;-68
2024/04/24 10:01:34;;;;;;;3.03;1.30;;;10.60;99.90;;;-141.84;39.81;19598.41;5451298;26;20233;-70
2024/04/24 10:04:09;;;;;;;2.20;1.70;;;10.60;99.90;;;-141.84;40.45;19572.00;5452280;26;20276;-68
2024/04/24 10:06:45;;;;;;;2.37;1.80;;;10.60;99.90;;;-141.84;41.65;19578.09;5451710;26;20305;-68
2024/04/24 10:09:24;;;;;;;3.87;2.43;;;10.60;99.90;;;-141.84;42.51;19561.84;5454788;26;20250;-68
2024/04/24 10:12:02;;;;;;;2.77;2.43;;;10.50;99.90;;;-141.84;42.87;19598.41;5450114;26;20253;-69
2024/04/24 10:14:38;;;;;;;3.90;1.80;;;10.60;99.90;;;-141.84;41.97;19578.09;5452104;26;20326;-68
2024/04/24 10:17:10;;;;;;;2.30;2.10;;;10.70;99.90;;;-141.84;40.74;19563.88;5451227;26;20253;-70
2024/04/24 10:19:47;;;;;;;2.37;2.00;;;10.50;99.90;;;-141.84;40.99;19606.53;5452677;26;20268;-69
2024/04/24 10:22:23;;;;;;;2.53;1.90;;;10.40;99.90;;;-141.84;41.14;19608.56;5452164;26;20285;-70
2024/04/24 10:24:55;;;;;;;2.50;2.00;;;10.40;99.90;;;-141.84;40.24;19622.81;5451924;26;20291;-68
2024/04/24 10:27:28;;;;;;;2.37;1.97;;;10.60;99.90;;;-141.84;39.75;19704.09;5451185;26;20595;-69
2024/04/24 10:30:01;;;;;;;3.60;1.70;;;11.00;99.90;;;-141.84;37.38;19736.59;5454331;26;20296;-69
2024/04/24 10:32:34;;;;;;;4.53;1.90;;;11.20;99.90;;;-141.84;38.22;19744.75;5451519;26;20737;-68
2024/04/24 10:35:07;;;;;;;2.47;1.70;;;11.50;99.90;;;-141.84;36.92;19834.16;5455461;26;21051;-69
2024/04/24 10:37:38;;;;;;;3.40;1.52;;;11.80;99.90;;;-141.84;34.80;19826.03;5457770;26;20225;-69
2024/04/24 10:40:14;;;;;;;4.33;2.50;;;12.10;99.90;;;-141.84;35.91;19850.41;5452128;26;20230;-68
2024/04/24 10:42:46;;;;;;;2.67;2.40;;;12.00;99.90;;;-141.84;36.78;19805.72;5438818;26;20283;-68
2024/04/24 10:45:19;;;;;;;2.72;2.47;;;12.20;99.90;;;-141.84;36.64;19785.38;5452718;26;20256;-68